sensor_id;sensor_type;location;lat;lon;timestamp;temperature;humidity
5009;DHT22;2523;51.058;6.922;2024-03-08T00:00:14;4.90;99.90
5009;DHT22;2523;51.058;6.922;2024-03-08T00:02:41;4.90;99.60
5009;DHT22;2523;51.058;6.922;2024-03-08T00:05:08;4.90;99.40
5009;DHT22;2523;51.058;6.922;2024-03-08T00:07:40;4.90;99.90
5009;DHT22;2523;51.058;6.922;2024-03-08T00:10:07;4.90;99.90
5009;DHT22;2523;51.058;6.922;2024-03-08T00:12:39;4.90;99.90
5009;DHT22;2523;51.058;6.922;2024-03-08T00:15:12;4.80;99.60
5009;DHT22;2523;51.058;6.922;2024-03-08T00:17:43;4.80;99.90
5009;DHT22;2523;51.058;6.922;2024-03-08T00:20:09;4.90;99.90
5009;DHT22;2523;51.058;6.922;2024-03-08T00:22:35;4.90;99.90
5009;DHT22;2523;51.058;6.922;2024-03-08T00:25:02;4.80;99.90
5009;DHT22;2523;51.058;6.922;2024-03-08T00:27:28;4.90;99.90
5009;DHT22;2523;51.058;6.922;2024-03-08T00:29:57;4.80;99.90
5009;DHT22;2523;51.058;6.922;2024-03-08T00:32:23;4.80;99.90
5009;DHT22;2523;51.058;6.922;2024-03-08T00:34:53;4.80;99.90
5009;DHT22;2523;51.058;6.922;2024-03-08T00:37:20;4.70;99.90
5009;DHT22;2523;51.058;6.922;2024-03-08T00:39:48;4.60;99.90
5009;DHT22;2523;51.058;6.922;2024-03-08T00:42:15;4.60;99.90
5009;DHT22;2523;51.058;6.922;2024-03-08T00:44:41;4.60;99.90
5009;DHT22;2523;51.058;6.922;2024-03-08T00:47:07;4.60;99.90
5009;DHT22;2523;51.058;6.922;2024-03-08T00:49:32;4.60;99.90
5009;DHT22;2523;51.058;6.922;2024-03-08T00:51:58;4.60;99.90
5009;DHT22;2523;51.058;6.922;2024-03-08T00:54:23;4.50;99.90
5009;DHT22;2523;51.058;6.922;2024-03-08T00:56:49;4.50;99.90
5009;DHT22;2523;51.058;6.922;2024-03-08T00:59:14;4.50;99.90
5009;DHT22;2523;51.058;6.922;2024-03-08T01:01:40;4.60;99.90
5009;DHT22;2523;51.058;6.922;2024-03-08T01:04:06;4.50;99.90
5009;DHT22;2523;51.058;6.922;2024-03-08T01:06:33;4.50;99.90
5009;DHT22;2523;51.058;6.922;2024-03-08T01:08:59;4.50;99.90
5009;DHT22;2523;51.058;6.922;2024-03-08T01:11:24;4.40;99.90
5009;DHT22;2523;51.058;6.922;2024-03-08T01:13:50;4.50;99.90
5009;DHT22;2523;51.058;6.922;2024-03-08T01:16:15;4.40;99.90
5009;DHT22;2523;51.058;6.922;2024-03-08T01:18:42;4.40;99.90
5009;DHT22;2523;51.058;6.922;2024-03-08T01:21:08;4.40;99.90
5009;DHT22;2523;51.058;6.922;2024-03-08T01:23:34;4.40;99.90
5009;DHT22;2523;51.058;6.922;2024-03-08T01:26:00;4.30;99.90
5009;DHT22;2523;51.058;6.922;2024-03-08T01:28:27;4.30;99.90
5009;DHT22;2523;51.058;6.922;2024-03-08T01:30:53;4.30;99.90
5009;DHT22;2523;51.058;6.922;2024-03-08T01:33:23;4.20;99.90
5009;DHT22;2523;51.058;6.922;2024-03-08T01:35:49;4.30;99.90
5009;DHT22;2523;51.058;6.922;2024-03-08T01:38:15;4.30;99.90
5009;DHT22;2523;51.058;6.922;2024-03-08T01:40:41;4.20;99.90
5009;DHT22;2523;51.058;6.922;2024-03-08T01:43:26;4.20;99.90
5009;DHT22;2523;51.058;6.922;2024-03-08T01:45:55;4.20;99.90
5009;DHT22;2523;51.058;6.922;2024-03-08T01:48:20;4.20;99.90
5009;DHT22;2523;51.058;6.922;2024-03-08T01:50:49;4.10;99.90
5009;DHT22;2523;51.058;6.922;2024-03-08T01:53:16;4.20;99.90
5009;DHT22;2523;51.058;6.922;2024-03-08T01:55:47;4.20;99.90
5009;DHT22;2523;51.058;6.922;2024-03-08T01:58:13;4.20;99.90
5009;DHT22;2523;51.058;6.922;2024-03-08T02:00:43;4.10;99.90
5009;DHT22;2523;51.058;6.922;2024-03-08T02:03:11;4.10;99.90
5009;DHT22;2523;51.058;6.922;2024-03-08T02:05:37;4.20;99.90
5009;DHT22;2523;51.058;6.922;2024-03-08T02:08:04;4.20;99.90
5009;DHT22;2523;51.058;6.922;2024-03-08T02:10:33;4.10;99.90
5009;DHT22;2523;51.058;6.922;2024-03-08T02:12:59;4.10;99.90
5009;DHT22;2523;51.058;6.922;2024-03-08T02:15:24;4.20;99.90
5009;DHT22;2523;51.058;6.922;2024-03-08T02:17:51;4.00;99.90
5009;DHT22;2523;51.058;6.922;2024-03-08T02:20:18;4.00;99.90
5009;DHT22;2523;51.058;6.922;2024-03-08T02:22:45;4.10;99.90
5009;DHT22;2523;51.058;6.922;2024-03-08T02:25:11;4.10;99.90
5009;DHT22;2523;51.058;6.922;2024-03-08T02:27:37;4.00;99.90
5009;DHT22;2523;51.058;6.922;2024-03-08T02:30:03;4.10;99.90
5009;DHT22;2523;51.058;6.922;2024-03-08T02:32:30;4.10;99.90
5009;DHT22;2523;51.058;6.922;2024-03-08T02:34:58;4.10;99.90
5009;DHT22;2523;51.058;6.922;2024-03-08T02:37:25;4.00;99.90
5009;DHT22;2523;51.058;6.922;2024-03-08T02:39:50;4.00;99.90
5009;DHT22;2523;51.058;6.922;2024-03-08T02:42:16;4.00;99.90
5009;DHT22;2523;51.058;6.922;2024-03-08T02:44:44;4.00;99.90
5009;DHT22;2523;51.058;6.922;2024-03-08T02:47:10;4.00;99.90
5009;DHT22;2523;51.058;6.922;2024-03-08T02:49:36;3.90;99.90
5009;DHT22;2523;51.058;6.922;2024-03-08T02:52:03;3.90;99.90
5009;DHT22;2523;51.058;6.922;2024-03-08T02:54:29;3.90;99.90
5009;DHT22;2523;51.058;6.922;2024-03-08T02:56:54;4.00;99.90
5009;DHT22;2523;51.058;6.922;2024-03-08T02:59:20;4.00;99.90
5009;DHT22;2523;51.058;6.922;2024-03-08T03:01:45;4.00;99.90
5009;DHT22;2523;51.058;6.922;2024-03-08T03:04:11;4.00;99.90
5009;DHT22;2523;51.058;6.922;2024-03-08T03:06:36;4.00;99.90
5009;DHT22;2523;51.058;6.922;2024-03-08T03:09:02;3.90;99.90
5009;DHT22;2523;51.058;6.922;2024-03-08T03:11:28;3.90;99.90
5009;DHT22;2523;51.058;6.922;2024-03-08T03:13:54;3.80;99.90
5009;DHT22;2523;51.058;6.922;2024-03-08T03:16:21;3.80;99.90
5009;DHT22;2523;51.058;6.922;2024-03-08T03:18:47;3.80;99.90
5009;DHT22;2523;51.058;6.922;2024-03-08T03:21:13;3.70;99.90
5009;DHT22;2523;51.058;6.922;2024-03-08T03:23:39;3.70;99.90
5009;DHT22;2523;51.058;6.922;2024-03-08T03:26:06;3.80;99.90
5009;DHT22;2523;51.058;6.922;2024-03-08T03:28:37;3.80;99.90
5009;DHT22;2523;51.058;6.922;2024-03-08T03:31:07;3.80;99.90
5009;DHT22;2523;51.058;6.922;2024-03-08T03:33:33;3.90;99.90
5009;DHT22;2523;51.058;6.922;2024-03-08T03:36:02;3.80;99.90
5009;DHT22;2523;51.058;6.922;2024-03-08T03:38:28;3.70;99.90
5009;DHT22;2523;51.058;6.922;2024-03-08T03:40:54;3.70;99.90
5009;DHT22;2523;51.058;6.922;2024-03-08T03:43:23;3.60;99.90
5009;DHT22;2523;51.058;6.922;2024-03-08T03:45:49;3.50;99.90
5009;DHT22;2523;51.058;6.922;2024-03-08T03:48:14;3.40;99.90
5009;DHT22;2523;51.058;6.922;2024-03-08T03:50:40;3.40;99.90
5009;DHT22;2523;51.058;6.922;2024-03-08T03:53:06;3.40;99.90
5009;DHT22;2523;51.058;6.922;2024-03-08T03:55:33;3.30;99.90
5009;DHT22;2523;51.058;6.922;2024-03-08T03:57:59;3.30;99.90
5009;DHT22;2523;51.058;6.922;2024-03-08T04:00:26;3.40;99.90
5009;DHT22;2523;51.058;6.922;2024-03-08T04:02:52;3.40;99.90
5009;DHT22;2523;51.058;6.922;2024-03-08T04:05:18;3.40;99.90
5009;DHT22;2523;51.058;6.922;2024-03-08T04:07:43;3.40;99.90
5009;DHT22;2523;51.058;6.922;2024-03-08T04:10:10;3.50;99.90
5009;DHT22;2523;51.058;6.922;2024-03-08T04:12:37;3.40;99.90
5009;DHT22;2523;51.058;6.922;2024-03-08T04:15:03;3.40;99.90
5009;DHT22;2523;51.058;6.922;2024-03-08T04:17:30;3.40;99.90
5009;DHT22;2523;51.058;6.922;2024-03-08T04:19:56;3.40;99.90
5009;DHT22;2523;51.058;6.922;2024-03-08T04:22:22;3.50;99.90
5009;DHT22;2523;51.058;6.922;2024-03-08T04:24:48;3.50;99.90
5009;DHT22;2523;51.058;6.922;2024-03-08T04:27:14;3.60;99.90
5009;DHT22;2523;51.058;6.922;2024-03-08T04:29:40;3.60;99.90
5009;DHT22;2523;51.058;6.922;2024-03-08T04:32:06;3.50;99.90
5009;DHT22;2523;51.058;6.922;2024-03-08T04:34:32;3.50;99.90
5009;DHT22;2523;51.058;6.922;2024-03-08T04:36:59;3.60;99.90
5009;DHT22;2523;51.058;6.922;2024-03-08T04:39:25;3.50;99.90
5009;DHT22;2523;51.058;6.922;2024-03-08T04:41:54;3.50;99.90
5009;DHT22;2523;51.058;6.922;2024-03-08T04:44:20;3.50;99.90
5009;DHT22;2523;51.058;6.922;2024-03-08T04:46:45;3.50;99.90
5009;DHT22;2523;51.058;6.922;2024-03-08T04:49:12;3.50;99.90
5009;DHT22;2523;51.058;6.922;2024-03-08T04:51:38;3.50;99.90
5009;DHT22;2523;51.058;6.922;2024-03-08T04:54:04;3.60;99.90
5009;DHT22;2523;51.058;6.922;2024-03-08T04:56:30;3.50;99.90
5009;DHT22;2523;51.058;6.922;2024-03-08T04:58:55;3.50;99.90
5009;DHT22;2523;51.058;6.922;2024-03-08T05:01:21;3.50;99.90
5009;DHT22;2523;51.058;6.922;2024-03-08T05:03:47;3.50;99.90
5009;DHT22;2523;51.058;6.922;2024-03-08T05:06:16;3.60;99.90
5009;DHT22;2523;51.058;6.922;2024-03-08T05:08:41;3.60;99.90
5009;DHT22;2523;51.058;6.922;2024-03-08T05:11:07;3.60;99.90
5009;DHT22;2523;51.058;6.922;2024-03-08T05:13:32;3.60;99.90
5009;DHT22;2523;51.058;6.922;2024-03-08T05:15:59;3.60;99.90
5009;DHT22;2523;51.058;6.922;2024-03-08T05:18:25;3.50;99.90
5009;DHT22;2523;51.058;6.922;2024-03-08T05:20:53;3.60;99.90
5009;DHT22;2523;51.058;6.922;2024-03-08T05:23:19;3.60;99.90
5009;DHT22;2523;51.058;6.922;2024-03-08T05:25:45;3.60;99.90
5009;DHT22;2523;51.058;6.922;2024-03-08T05:28:12;3.60;99.90
5009;DHT22;2523;51.058;6.922;2024-03-08T05:30:38;3.60;99.90
5009;DHT22;2523;51.058;6.922;2024-03-08T05:33:04;3.60;99.90
5009;DHT22;2523;51.058;6.922;2024-03-08T05:35:29;3.60;99.90
5009;DHT22;2523;51.058;6.922;2024-03-08T05:37:55;3.60;99.90
5009;DHT22;2523;51.058;6.922;2024-03-08T05:40:21;3.60;99.90
5009;DHT22;2523;51.058;6.922;2024-03-08T05:42:46;3.60;99.90
5009;DHT22;2523;51.058;6.922;2024-03-08T05:45:12;3.60;99.90
5009;DHT22;2523;51.058;6.922;2024-03-08T05:47:39;3.60;99.90
5009;DHT22;2523;51.058;6.922;2024-03-08T05:50:05;3.60;99.90
5009;DHT22;2523;51.058;6.922;2024-03-08T05:52:32;3.60;99.90
5009;DHT22;2523;51.058;6.922;2024-03-08T05:54:58;3.60;99.90
5009;DHT22;2523;51.058;6.922;2024-03-08T05:57:24;3.60;99.90
5009;DHT22;2523;51.058;6.922;2024-03-08T05:59:49;3.60;99.90
5009;DHT22;2523;51.058;6.922;2024-03-08T06:02:15;3.50;99.90
5009;DHT22;2523;51.058;6.922;2024-03-08T06:04:47;3.60;99.90
5009;DHT22;2523;51.058;6.922;2024-03-08T06:07:12;3.50;99.90
5009;DHT22;2523;51.058;6.922;2024-03-08T06:09:38;3.50;99.90
5009;DHT22;2523;51.058;6.922;2024-03-08T06:12:04;3.60;99.90
5009;DHT22;2523;51.058;6.922;2024-03-08T06:14:31;3.60;99.90
5009;DHT22;2523;51.058;6.922;2024-03-08T06:16:57;3.50;99.90
5009;DHT22;2523;51.058;6.922;2024-03-08T06:19:23;3.50;99.90
5009;DHT22;2523;51.058;6.922;2024-03-08T06:21:48;3.60;99.90
5009;DHT22;2523;51.058;6.922;2024-03-08T06:24:14;3.60;99.90
5009;DHT22;2523;51.058;6.922;2024-03-08T06:26:40;3.60;99.90
5009;DHT22;2523;51.058;6.922;2024-03-08T06:29:06;3.70;99.90
5009;DHT22;2523;51.058;6.922;2024-03-08T06:31:35;3.70;99.90
5009;DHT22;2523;51.058;6.922;2024-03-08T06:34:04;3.80;99.90
5009;DHT22;2523;51.058;6.922;2024-03-08T06:36:32;3.80;99.90
5009;DHT22;2523;51.058;6.922;2024-03-08T06:38:58;3.70;99.90
5009;DHT22;2523;51.058;6.922;2024-03-08T06:41:24;3.80;99.90
5009;DHT22;2523;51.058;6.922;2024-03-08T06:43:50;3.80;99.90
5009;DHT22;2523;51.058;6.922;2024-03-08T06:46:17;3.70;99.90
5009;DHT22;2523;51.058;6.922;2024-03-08T06:48:43;3.80;99.90
5009;DHT22;2523;51.058;6.922;2024-03-08T06:51:08;3.80;99.90
5009;DHT22;2523;51.058;6.922;2024-03-08T06:53:35;3.90;99.90
5009;DHT22;2523;51.058;6.922;2024-03-08T06:56:02;3.90;99.90
5009;DHT22;2523;51.058;6.922;2024-03-08T06:58:27;3.90;99.90
5009;DHT22;2523;51.058;6.922;2024-03-08T07:00:53;4.00;99.90
5009;DHT22;2523;51.058;6.922;2024-03-08T07:03:19;4.00;99.90
5009;DHT22;2523;51.058;6.922;2024-03-08T07:05:47;4.10;99.90
5009;DHT22;2523;51.058;6.922;2024-03-08T07:08:13;4.10;99.90
5009;DHT22;2523;51.058;6.922;2024-03-08T07:10:39;4.20;99.90
5009;DHT22;2523;51.058;6.922;2024-03-08T07:13:07;4.20;99.90
5009;DHT22;2523;51.058;6.922;2024-03-08T07:15:32;4.30;99.90
5009;DHT22;2523;51.058;6.922;2024-03-08T07:17:58;4.30;99.90
5009;DHT22;2523;51.058;6.922;2024-03-08T07:20:25;4.40;99.90
5009;DHT22;2523;51.058;6.922;2024-03-08T07:22:50;4.40;99.90
5009;DHT22;2523;51.058;6.922;2024-03-08T07:25:16;4.50;99.90
5009;DHT22;2523;51.058;6.922;2024-03-08T07:27:55;4.50;99.90
5009;DHT22;2523;51.058;6.922;2024-03-08T07:30:22;4.60;99.90
5009;DHT22;2523;51.058;6.922;2024-03-08T07:33:06;4.60;99.90
5009;DHT22;2523;51.058;6.922;2024-03-08T07:35:33;4.70;99.90
5009;DHT22;2523;51.058;6.922;2024-03-08T07:37:58;4.80;99.90
5009;DHT22;2523;51.058;6.922;2024-03-08T07:40:25;4.90;99.90
5009;DHT22;2523;51.058;6.922;2024-03-08T07:42:51;4.90;99.90
5009;DHT22;2523;51.058;6.922;2024-03-08T07:45:17;5.00;99.90
5009;DHT22;2523;51.058;6.922;2024-03-08T07:47:43;5.10;99.90
5009;DHT22;2523;51.058;6.922;2024-03-08T07:50:08;5.20;99.90
5009;DHT22;2523;51.058;6.922;2024-03-08T07:52:35;5.20;99.90
5009;DHT22;2523;51.058;6.922;2024-03-08T07:55:04;5.20;99.90
5009;DHT22;2523;51.058;6.922;2024-03-08T07:57:31;5.30;99.90
5009;DHT22;2523;51.058;6.922;2024-03-08T07:59:57;5.40;99.90
5009;DHT22;2523;51.058;6.922;2024-03-08T08:02:23;5.40;99.90
5009;DHT22;2523;51.058;6.922;2024-03-08T08:04:48;5.60;99.90
5009;DHT22;2523;51.058;6.922;2024-03-08T08:07:14;5.70;99.90
5009;DHT22;2523;51.058;6.922;2024-03-08T08:09:43;5.70;99.90
5009;DHT22;2523;51.058;6.922;2024-03-08T08:12:11;5.80;99.90
5009;DHT22;2523;51.058;6.922;2024-03-08T08:14:38;6.00;99.90
5009;DHT22;2523;51.058;6.922;2024-03-08T08:17:04;6.00;99.90
5009;DHT22;2523;51.058;6.922;2024-03-08T08:19:30;6.10;99.90
5009;DHT22;2523;51.058;6.922;2024-03-08T08:21:57;6.20;99.90
5009;DHT22;2523;51.058;6.922;2024-03-08T08:24:23;6.20;99.90
5009;DHT22;2523;51.058;6.922;2024-03-08T08:26:48;6.30;99.90
5009;DHT22;2523;51.058;6.922;2024-03-08T08:29:14;6.40;99.90
5009;DHT22;2523;51.058;6.922;2024-03-08T08:31:40;6.60;99.90
5009;DHT22;2523;51.058;6.922;2024-03-08T08:34:05;6.60;99.90
5009;DHT22;2523;51.058;6.922;2024-03-08T08:36:32;6.80;99.90
5009;DHT22;2523;51.058;6.922;2024-03-08T08:38:57;6.90;99.90
5009;DHT22;2523;51.058;6.922;2024-03-08T08:41:24;7.00;96.50
5009;DHT22;2523;51.058;6.922;2024-03-08T08:43:50;6.90;94.90
5009;DHT22;2523;51.058;6.922;2024-03-08T08:46:19;7.00;95.30
5009;DHT22;2523;51.058;6.922;2024-03-08T08:48:45;7.20;94.90
5009;DHT22;2523;51.058;6.922;2024-03-08T08:51:12;7.20;94.50
5009;DHT22;2523;51.058;6.922;2024-03-08T08:53:41;7.30;96.10
5009;DHT22;2523;51.058;6.922;2024-03-08T08:56:08;7.40;95.10
5009;DHT22;2523;51.058;6.922;2024-03-08T08:58:34;7.60;94.70
5009;DHT22;2523;51.058;6.922;2024-03-08T09:01:00;7.60;92.00
5009;DHT22;2523;51.058;6.922;2024-03-08T09:03:25;7.60;91.30
5009;DHT22;2523;51.058;6.922;2024-03-08T09:05:53;7.70;91.20
5009;DHT22;2523;51.058;6.922;2024-03-08T09:08:18;7.90;91.50
5009;DHT22;2523;51.058;6.922;2024-03-08T09:10:45;7.90;89.60
5009;DHT22;2523;51.058;6.922;2024-03-08T09:13:11;8.10;84.00
5009;DHT22;2523;51.058;6.922;2024-03-08T09:15:37;8.20;85.40
5009;DHT22;2523;51.058;6.922;2024-03-08T09:18:06;8.30;79.70
5009;DHT22;2523;51.058;6.922;2024-03-08T09:20:31;8.50;82.00
5009;DHT22;2523;51.058;6.922;2024-03-08T09:22:57;8.60;81.00
5009;DHT22;2523;51.058;6.922;2024-03-08T09:25:23;8.80;79.30
5009;DHT22;2523;51.058;6.922;2024-03-08T09:27:48;8.60;71.70
5009;DHT22;2523;51.058;6.922;2024-03-08T09:30:15;8.50;74.60
5009;DHT22;2523;51.058;6.922;2024-03-08T09:32:41;8.80;81.90
5009;DHT22;2523;51.058;6.922;2024-03-08T09:35:08;8.90;79.10
5009;DHT22;2523;51.058;6.922;2024-03-08T09:37:34;9.00;77.00
5009;DHT22;2523;51.058;6.922;2024-03-08T09:40:00;8.90;73.10
5009;DHT22;2523;51.058;6.922;2024-03-08T09:42:26;9.20;76.40
5009;DHT22;2523;51.058;6.922;2024-03-08T09:44:51;9.50;64.40
5009;DHT22;2523;51.058;6.922;2024-03-08T09:47:18;9.60;65.10
5009;DHT22;2523;51.058;6.922;2024-03-08T09:49:43;9.30;62.30
5009;DHT22;2523;51.058;6.922;2024-03-08T09:52:09;9.50;61.10
5009;DHT22;2523;51.058;6.922;2024-03-08T09:54:36;9.70;56.10
5009;DHT22;2523;51.058;6.922;2024-03-08T09:57:03;10.10;49.50
5009;DHT22;2523;51.058;6.922;2024-03-08T09:59:30;10.10;47.60
5009;DHT22;2523;51.058;6.922;2024-03-08T10:02:18;10.30;42.20
5009;DHT22;2523;51.058;6.922;2024-03-08T10:04:44;10.30;54.00
5009;DHT22;2523;51.058;6.922;2024-03-08T10:07:13;10.50;44.90
5009;DHT22;2523;51.058;6.922;2024-03-08T10:09:39;9.80;40.30
5009;DHT22;2523;51.058;6.922;2024-03-08T10:12:05;10.20;53.20
5009;DHT22;2523;51.058;6.922;2024-03-08T10:14:31;10.40;47.20
5009;DHT22;2523;51.058;6.922;2024-03-08T10:16:59;10.00;41.50
5009;DHT22;2523;51.058;6.922;2024-03-08T10:19:26;10.20;41.90
5009;DHT22;2523;51.058;6.922;2024-03-08T10:21:53;10.60;33.20
5009;DHT22;2523;51.058;6.922;2024-03-08T10:24:25;10.90;31.60
5009;DHT22;2523;51.058;6.922;2024-03-08T10:26:59;11.00;28.40
5009;DHT22;2523;51.058;6.922;2024-03-08T10:29:25;11.00;24.50
5009;DHT22;2523;51.058;6.922;2024-03-08T10:31:51;11.10;22.00
5009;DHT22;2523;51.058;6.922;2024-03-08T10:34:17;10.90;23.40
5009;DHT22;2523;51.058;6.922;2024-03-08T10:36:42;11.20;28.10
5009;DHT22;2523;51.058;6.922;2024-03-08T10:41:45;11.20;24.40
5009;DHT22;2523;51.058;6.922;2024-03-08T10:47:03;12.00;11.10
5009;DHT22;2523;51.058;6.922;2024-03-08T10:49:38;12.10;13.40
5009;DHT22;2523;51.058;6.922;2024-03-08T10:52:05;12.40;10.50
5009;DHT22;2523;51.058;6.922;2024-03-08T10:54:34;12.10;3.40
5009;DHT22;2523;51.058;6.922;2024-03-08T10:57:05;11.60;1.00
5009;DHT22;2523;51.058;6.922;2024-03-08T10:59:31;12.10;4.60
5009;DHT22;2523;51.058;6.922;2024-03-08T11:01:59;12.60;2.20
5009;DHT22;2523;51.058;6.922;2024-03-08T11:04:25;12.20;1.00
5009;DHT22;2523;51.058;6.922;2024-03-08T11:06:51;12.00;4.80
5009;DHT22;2523;51.058;6.922;2024-03-08T11:09:36;12.20;5.10
5009;DHT22;2523;51.058;6.922;2024-03-08T11:12:21;12.10;4.40
5009;DHT22;2523;51.058;6.922;2024-03-08T11:14:49;13.20;1.00
5009;DHT22;2523;51.058;6.922;2024-03-08T11:17:16;13.70;1.00
5009;DHT22;2523;51.058;6.922;2024-03-08T11:19:48;13.90;1.00
5009;DHT22;2523;51.058;6.922;2024-03-08T11:22:27;13.50;1.00
5009;DHT22;2523;51.058;6.922;2024-03-08T11:24:53;13.60;1.00
5009;DHT22;2523;51.058;6.922;2024-03-08T11:27:19;13.50;1.00
5009;DHT22;2523;51.058;6.922;2024-03-08T11:30:02;13.50;1.00
5009;DHT22;2523;51.058;6.922;2024-03-08T11:32:38;13.70;1.00
5009;DHT22;2523;51.058;6.922;2024-03-08T11:35:07;14.00;1.00
5009;DHT22;2523;51.058;6.922;2024-03-08T11:37:43;14.40;1.00
5009;DHT22;2523;51.058;6.922;2024-03-08T11:40:12;14.10;1.00
5009;DHT22;2523;51.058;6.922;2024-03-08T11:42:45;14.10;1.00
5009;DHT22;2523;51.058;6.922;2024-03-08T11:45:15;13.60;1.00
5009;DHT22;2523;51.058;6.922;2024-03-08T11:47:42;13.30;1.00
5009;DHT22;2523;51.058;6.922;2024-03-08T11:50:10;13.90;1.00
5009;DHT22;2523;51.058;6.922;2024-03-08T11:52:37;14.00;1.00
5009;DHT22;2523;51.058;6.922;2024-03-08T11:55:03;14.90;1.00
5009;DHT22;2523;51.058;6.922;2024-03-08T11:57:30;15.20;1.00
5009;DHT22;2523;51.058;6.922;2024-03-08T11:59:56;16.00;1.00
5009;DHT22;2523;51.058;6.922;2024-03-08T12:02:22;15.50;1.00
5009;DHT22;2523;51.058;6.922;2024-03-08T12:04:56;15.90;1.00
5009;DHT22;2523;51.058;6.922;2024-03-08T12:07:22;16.10;1.00
5009;DHT22;2523;51.058;6.922;2024-03-08T12:10:17;16.70;1.00
5009;DHT22;2523;51.058;6.922;2024-03-08T12:12:48;17.90;1.00
5009;DHT22;2523;51.058;6.922;2024-03-08T12:15:19;18.80;1.00
5009;DHT22;2523;51.058;6.922;2024-03-08T12:17:47;19.70;1.00
5009;DHT22;2523;51.058;6.922;2024-03-08T12:22:43;20.30;1.00
5009;DHT22;2523;51.058;6.922;2024-03-08T12:25:11;20.70;1.00
5009;DHT22;2523;51.058;6.922;2024-03-08T12:27:38;20.20;1.00
5009;DHT22;2523;51.058;6.922;2024-03-08T12:30:24;21.00;1.00
5009;DHT22;2523;51.058;6.922;2024-03-08T12:33:00;21.00;1.00
5009;DHT22;2523;51.058;6.922;2024-03-08T12:35:27;22.10;1.00
5009;DHT22;2523;51.058;6.922;2024-03-08T12:37:58;21.90;1.00
5009;DHT22;2523;51.058;6.922;2024-03-08T12:40:31;21.10;1.00
5009;DHT22;2523;51.058;6.922;2024-03-08T12:42:58;21.10;1.00
5009;DHT22;2523;51.058;6.922;2024-03-08T12:45:24;21.70;1.00
5009;DHT22;2523;51.058;6.922;2024-03-08T12:47:54;21.80;1.00
5009;DHT22;2523;51.058;6.922;2024-03-08T12:50:23;20.10;1.00
5009;DHT22;2523;51.058;6.922;2024-03-08T12:52:50;20.80;1.00
5009;DHT22;2523;51.058;6.922;2024-03-08T12:55:16;21.10;1.00
5009;DHT22;2523;51.058;6.922;2024-03-08T12:57:44;22.00;1.00
5009;DHT22;2523;51.058;6.922;2024-03-08T13:00:10;22.60;1.00
5009;DHT22;2523;51.058;6.922;2024-03-08T13:02:47;19.80;1.00
5009;DHT22;2523;51.058;6.922;2024-03-08T13:05:12;20.00;1.00
5009;DHT22;2523;51.058;6.922;2024-03-08T13:07:40;20.00;1.00
5009;DHT22;2523;51.058;6.922;2024-03-08T13:10:06;19.90;1.00
5009;DHT22;2523;51.058;6.922;2024-03-08T13:12:32;20.00;1.00
5009;DHT22;2523;51.058;6.922;2024-03-08T13:15:00;20.80;1.00
5009;DHT22;2523;51.058;6.922;2024-03-08T13:17:25;20.60;1.00
5009;DHT22;2523;51.058;6.922;2024-03-08T13:19:51;20.50;1.00
5009;DHT22;2523;51.058;6.922;2024-03-08T13:22:21;20.20;1.00
5009;DHT22;2523;51.058;6.922;2024-03-08T13:24:48;19.90;1.00
5009;DHT22;2523;51.058;6.922;2024-03-08T13:27:13;19.30;1.00
5009;DHT22;2523;51.058;6.922;2024-03-08T13:29:46;19.10;1.00
5009;DHT22;2523;51.058;6.922;2024-03-08T13:32:13;19.60;1.00
5009;DHT22;2523;51.058;6.922;2024-03-08T13:34:42;19.70;1.00
5009;DHT22;2523;51.058;6.922;2024-03-08T13:37:09;19.10;1.00
5009;DHT22;2523;51.058;6.922;2024-03-08T13:39:35;17.80;1.00
5009;DHT22;2523;51.058;6.922;2024-03-08T13:42:07;18.00;1.00
5009;DHT22;2523;51.058;6.922;2024-03-08T13:44:35;18.10;1.00
5009;DHT22;2523;51.058;6.922;2024-03-08T13:47:02;16.20;1.00
5009;DHT22;2523;51.058;6.922;2024-03-08T13:49:30;15.50;1.00
5009;DHT22;2523;51.058;6.922;2024-03-08T13:51:55;15.10;1.00
5009;DHT22;2523;51.058;6.922;2024-03-08T13:54:24;14.70;1.00
5009;DHT22;2523;51.058;6.922;2024-03-08T13:56:50;14.90;1.00
5009;DHT22;2523;51.058;6.922;2024-03-08T13:59:19;15.40;1.00
5009;DHT22;2523;51.058;6.922;2024-03-08T14:01:48;15.60;1.00
5009;DHT22;2523;51.058;6.922;2024-03-08T14:04:14;15.20;1.00
5009;DHT22;2523;51.058;6.922;2024-03-08T14:06:40;15.70;1.00
5009;DHT22;2523;51.058;6.922;2024-03-08T14:09:06;15.20;1.00
5009;DHT22;2523;51.058;6.922;2024-03-08T14:11:33;16.00;1.00
5009;DHT22;2523;51.058;6.922;2024-03-08T14:13:58;16.90;1.00
5009;DHT22;2523;51.058;6.922;2024-03-08T14:16:24;17.20;1.00
5009;DHT22;2523;51.058;6.922;2024-03-08T14:18:50;17.00;1.00
5009;DHT22;2523;51.058;6.922;2024-03-08T14:21:15;17.00;1.00
5009;DHT22;2523;51.058;6.922;2024-03-08T14:23:42;16.80;1.00
5009;DHT22;2523;51.058;6.922;2024-03-08T14:26:08;16.10;1.00
5009;DHT22;2523;51.058;6.922;2024-03-08T14:28:35;15.90;1.00
5009;DHT22;2523;51.058;6.922;2024-03-08T14:31:01;15.60;1.00
5009;DHT22;2523;51.058;6.922;2024-03-08T14:33:28;15.50;1.00
5009;DHT22;2523;51.058;6.922;2024-03-08T14:35:54;15.30;1.00
5009;DHT22;2523;51.058;6.922;2024-03-08T14:38:19;15.20;1.00
5009;DHT22;2523;51.058;6.922;2024-03-08T14:40:45;15.20;1.00
5009;DHT22;2523;51.058;6.922;2024-03-08T14:43:12;15.20;1.00
5009;DHT22;2523;51.058;6.922;2024-03-08T14:45:38;15.30;1.00
5009;DHT22;2523;51.058;6.922;2024-03-08T14:48:04;15.10;1.00
5009;DHT22;2523;51.058;6.922;2024-03-08T14:50:30;14.90;1.00
5009;DHT22;2523;51.058;6.922;2024-03-08T14:52:58;14.70;1.00
5009;DHT22;2523;51.058;6.922;2024-03-08T14:55:25;14.70;1.00
5009;DHT22;2523;51.058;6.922;2024-03-08T14:57:51;14.40;1.00
5009;DHT22;2523;51.058;6.922;2024-03-08T15:00:20;14.30;1.00
5009;DHT22;2523;51.058;6.922;2024-03-08T15:02:55;14.30;1.00
5009;DHT22;2523;51.058;6.922;2024-03-08T15:05:22;14.30;1.00
5009;DHT22;2523;51.058;6.922;2024-03-08T15:07:52;14.20;1.00
5009;DHT22;2523;51.058;6.922;2024-03-08T15:10:17;14.30;1.00
5009;DHT22;2523;51.058;6.922;2024-03-08T15:12:46;14.10;1.00
5009;DHT22;2523;51.058;6.922;2024-03-08T15:15:14;13.90;1.00
5009;DHT22;2523;51.058;6.922;2024-03-08T15:17:44;13.70;1.00
5009;DHT22;2523;51.058;6.922;2024-03-08T15:20:12;13.60;1.00
5009;DHT22;2523;51.058;6.922;2024-03-08T15:22:51;13.60;1.00
5009;DHT22;2523;51.058;6.922;2024-03-08T15:25:23;13.60;1.00
5009;DHT22;2523;51.058;6.922;2024-03-08T15:27:55;13.50;1.00
5009;DHT22;2523;51.058;6.922;2024-03-08T15:30:21;13.50;1.00
5009;DHT22;2523;51.058;6.922;2024-03-08T15:32:54;13.50;1.00
5009;DHT22;2523;51.058;6.922;2024-03-08T15:35:25;13.40;1.00
5009;DHT22;2523;51.058;6.922;2024-03-08T15:37:51;13.50;1.00
5009;DHT22;2523;51.058;6.922;2024-03-08T15:40:18;13.40;1.00
5009;DHT22;2523;51.058;6.922;2024-03-08T15:42:48;13.50;1.00
5009;DHT22;2523;51.058;6.922;2024-03-08T15:45:15;13.40;1.00
5009;DHT22;2523;51.058;6.922;2024-03-08T15:47:42;13.40;1.00
5009;DHT22;2523;51.058;6.922;2024-03-08T15:50:09;13.50;1.00
5009;DHT22;2523;51.058;6.922;2024-03-08T15:52:38;13.50;1.00
5009;DHT22;2523;51.058;6.922;2024-03-08T15:55:07;13.40;1.00
5009;DHT22;2523;51.058;6.922;2024-03-08T15:57:33;13.40;1.00
5009;DHT22;2523;51.058;6.922;2024-03-08T15:59:59;13.00;1.00
5009;DHT22;2523;51.058;6.922;2024-03-08T16:02:26;12.70;1.00
5009;DHT22;2523;51.058;6.922;2024-03-08T16:04:54;12.60;1.00
5009;DHT22;2523;51.058;6.922;2024-03-08T16:07:19;12.60;1.00
5009;DHT22;2523;51.058;6.922;2024-03-08T16:09:45;12.60;1.00
5009;DHT22;2523;51.058;6.922;2024-03-08T16:12:11;12.60;1.00
5009;DHT22;2523;51.058;6.922;2024-03-08T16:14:37;12.50;1.00
5009;DHT22;2523;51.058;6.922;2024-03-08T16:17:05;12.50;1.00
5009;DHT22;2523;51.058;6.922;2024-03-08T16:19:32;12.30;1.00
5009;DHT22;2523;51.058;6.922;2024-03-08T16:21:57;12.40;1.00
5009;DHT22;2523;51.058;6.922;2024-03-08T16:24:23;12.30;1.00